createdAt,value
2023-07-25T00:00:30.758Z,100725.28
2023-07-25T00:01:02.282Z,100718.25
2023-07-25T00:01:33.954Z,100718.66
2023-07-25T00:02:05.764Z,100717.88
2023-07-25T00:02:37.405Z,100722.94
2023-07-25T00:03:09.075Z,100717.47
2023-07-25T00:03:40.614Z,100721.38
2023-07-25T00:04:12.084Z,100719.81
2023-07-25T00:04:43.885Z,100715.13
2023-07-25T00:05:15.324Z,100728.03
2023-07-25T00:05:46.744Z,100717.88
2023-07-25T00:06:18.761Z,100717.88
2023-07-25T00:06:50.180Z,100727.28
2023-07-25T00:07:21.672Z,100716.72
2023-07-25T00:07:53.148Z,100726.50
2023-07-25T00:08:24.565Z,100721.41
2023-07-25T00:08:56.010Z,100722.19
2023-07-25T00:09:27.518Z,100721.41
2023-07-25T00:09:59.457Z,100715.16
2023-07-25T00:10:33.246Z,100717.13
2023-07-25T00:11:04.888Z,100717.91
2023-07-25T00:11:36.694Z,100718.28
2023-07-25T00:12:08.196Z,100720.25
2023-07-25T00:12:40.263Z,100713.22
2023-07-25T00:13:11.845Z,100714.00
2023-07-25T00:13:43.311Z,100714.78
2023-07-25T00:14:14.816Z,100713.59
2023-07-25T00:14:46.218Z,100715.94
2023-07-25T00:15:17.710Z,100716.72
2023-07-25T00:15:51.230Z,100709.69
2023-07-25T00:16:22.786Z,100717.50
2023-07-25T00:16:54.187Z,100714.41
2023-07-25T00:17:25.749Z,100716.75
2023-07-25T00:17:58.053Z,100715.19
2023-07-25T00:18:29.578Z,100711.69
2023-07-25T00:19:01.014Z,100718.31
2023-07-25T00:19:32.512Z,100717.94
2023-07-25T00:20:05.876Z,100717.16
2023-07-25T00:20:37.319Z,100711.69
2023-07-25T00:21:08.757Z,100715.59
2023-07-25T00:21:40.200Z,100712.06
2023-07-25T00:22:11.843Z,100721.84
2023-07-25T00:22:43.269Z,100716.75
2023-07-25T00:23:15.030Z,100713.25
2023-07-25T00:23:46.482Z,100714.03
2023-07-25T00:24:18.124Z,100717.94
2023-07-25T00:24:49.846Z,100717.53
2023-07-25T00:25:21.548Z,100720.28
2023-07-25T00:25:53.081Z,100716.75
2023-07-25T00:26:24.520Z,100719.50
2023-07-25T00:26:55.931Z,100727.69
2023-07-25T00:27:27.480Z,100720.28
2023-07-25T00:27:59.262Z,100724.19
2023-07-25T00:28:30.714Z,100722.63
2023-07-25T00:29:02.176Z,100719.09
2023-07-25T00:29:33.601Z,100720.66
2023-07-25T00:30:06.482Z,100719.09
2023-07-25T00:30:37.917Z,100719.09
2023-07-25T00:31:09.442Z,100714.41
2023-07-25T00:31:40.910Z,100712.06
2023-07-25T00:32:12.491Z,100716.38
2023-07-25T00:32:44.089Z,100718.31
2023-07-25T00:33:15.538Z,100715.97
2023-07-25T00:33:47.038Z,100719.09
2023-07-25T00:34:18.668Z,100722.63
2023-07-25T00:34:53.161Z,100719.88
2023-07-25T00:35:24.652Z,100719.09
2023-07-25T00:35:56.084Z,100719.88
2023-07-25T00:36:27.543Z,100717.53
2023-07-25T00:36:58.971Z,100718.31
2023-07-25T00:37:30.961Z,100715.59
2023-07-25T00:38:05.390Z,100717.53
2023-07-25T00:38:36.825Z,100712.84
2023-07-25T00:39:08.226Z,100715.19
2023-07-25T00:39:39.648Z,100717.94
2023-07-25T00:40:11.609Z,100721.84
2023-07-25T00:40:43.055Z,100713.63
2023-07-25T00:41:14.626Z,100717.53
2023-07-25T00:41:46.157Z,100717.53
2023-07-25T00:42:17.747Z,100720.28
2023-07-25T00:42:54.968Z,100722.22
2023-07-25T00:43:26.550Z,100724.59
2023-07-25T00:43:58.076Z,100721.06
2023-07-25T00:44:29.633Z,100722.25
2023-07-25T00:45:01.184Z,100721.84
2023-07-25T00:45:32.819Z,100714.44
2023-07-25T00:46:05.624Z,100722.63
2023-07-25T00:46:37.155Z,100715.59
2023-07-25T00:47:08.684Z,100714.03
2023-07-25T00:47:40.168Z,100721.47
2023-07-25T00:48:11.664Z,100717.94
2023-07-25T00:48:44.960Z,100724.19
2023-07-25T00:49:16.728Z,100722.25
2023-07-25T00:49:48.711Z,100724.19
2023-07-25T00:50:20.294Z,100722.25
2023-07-25T00:50:52.219Z,100717.94
2023-07-25T00:51:23.763Z,100719.50
2023-07-25T00:51:55.788Z,100724.97
2023-07-25T00:52:27.603Z,100724.97
2023-07-25T00:53:00.310Z,100733.19
2023-07-25T00:53:31.927Z,100727.72
2023-07-25T00:54:03.607Z,100727.72
2023-07-25T00:54:35.480Z,100727.72
2023-07-25T00:55:07.948Z,100728.88
2023-07-25T00:55:39.991Z,100730.81
2023-07-25T00:56:12.754Z,100724.19
2023-07-25T00:56:44.258Z,100731.63
2023-07-25T00:57:17.938Z,100728.09
2023-07-25T00:57:49.491Z,100723.78
2023-07-25T00:58:20.964Z,100722.22
2023-07-25T00:58:52.486Z,100724.56
2023-07-25T00:59:23.909Z,100721.84
2023-07-25T00:59:55.314Z,100720.66
2023-07-25T01:00:26.794Z,100726.53
2023-07-25T01:01:05.590Z,100715.59
2023-07-25T01:01:37.843Z,100724.22
2023-07-25T01:02:10.591Z,100724.22
2023-07-25T01:02:42.243Z,100714.81
2023-07-25T01:03:14.850Z,100719.50
2023-07-25T01:03:46.428Z,100722.25
2023-07-25T01:04:18.244Z,100719.13
2023-07-25T01:04:49.762Z,100720.28
2023-07-25T01:05:22.828Z,100714.44
2023-07-25T01:05:54.944Z,100719.88
2023-07-25T01:06:27.797Z,100716.38
2023-07-25T01:07:00.831Z,100715.59
2023-07-25T01:07:32.730Z,100712.88
2023-07-25T01:08:04.412Z,100714.81
2023-07-25T01:08:48.871Z,100711.69
2023-07-25T01:09:43.636Z,100708.19
2023-07-25T01:10:16.018Z,100712.84
2023-07-25T01:10:47.502Z,100717.16
2023-07-25T01:11:19.664Z,100712.06
2023-07-25T01:11:51.099Z,100712.84
2023-07-25T01:12:22.900Z,100712.06
2023-07-25T01:12:54.338Z,100716.75
2023-07-25T01:13:26.136Z,100714.81
2023-07-25T01:13:57.814Z,100710.13
2023-07-25T01:14:31.433Z,100713.63
2023-07-25T01:15:03.249Z,100711.69
2023-07-25T01:15:35.633Z,100712.84
2023-07-25T01:16:10.491Z,100716.38
2023-07-25T01:16:42.103Z,100717.94
2023-07-25T01:17:16.591Z,100714.41
2023-07-25T01:17:48.092Z,100709.34
2023-07-25T01:18:20.258Z,100712.47
2023-07-25T01:18:52.730Z,100711.69
2023-07-25T01:19:29.777Z,100712.84
2023-07-25T01:20:01.583Z,100716.75
2023-07-25T01:20:35.698Z,100708.97
2023-07-25T01:21:08.473Z,100707.41
2023-07-25T01:21:39.985Z,100706.63
2023-07-25T01:22:12.442Z,100712.09
2023-07-25T01:22:46.360Z,100707.00
2023-07-25T01:23:18.703Z,100707.00
2023-07-25T01:23:51.075Z,100712.06
2023-07-25T01:24:22.824Z,100714.03
2023-07-25T01:24:56.165Z,100719.88
2023-07-25T01:25:27.764Z,100718.31
2023-07-25T01:25:59.340Z,100716.75
2023-07-25T01:26:30.863Z,100714.03
2023-07-25T01:27:03.092Z,100714.81
2023-07-25T01:27:34.505Z,100715.97
2023-07-25T01:28:06.461Z,100713.22
2023-07-25T01:28:38.770Z,100714.41
2023-07-25T01:29:10.247Z,100712.84
2023-07-25T01:29:41.915Z,100714.78
2023-07-25T01:30:13.381Z,100711.66
2023-07-25T01:30:45.030Z,100717.50
2023-07-25T01:31:16.505Z,100709.31
2023-07-25T01:31:47.917Z,100712.03
2023-07-25T01:32:19.407Z,100715.13
2023-07-25T01:32:52.476Z,100711.63
2023-07-25T01:33:24.435Z,100714.75
2023-07-25T01:33:55.928Z,100712.03
2023-07-25T01:34:27.415Z,100715.16
2023-07-25T01:34:59.652Z,100709.69
2023-07-25T01:35:31.116Z,100710.84
2023-07-25T01:36:02.609Z,100718.25
2023-07-25T01:36:34.054Z,100711.25
2023-07-25T01:37:06.911Z,100713.19
2023-07-25T01:37:38.387Z,100710.47
2023-07-25T01:38:09.841Z,100714.34
2023-07-25T01:38:41.259Z,100714.34
2023-07-25T01:39:12.665Z,100708.50
2023-07-25T01:39:45.040Z,100707.72
2023-07-25T01:40:16.537Z,100705.75
2023-07-25T01:40:48.211Z,100708.09
2023-07-25T01:41:19.743Z,100709.25
2023-07-25T01:41:51.148Z,100709.25
2023-07-25T01:42:22.669Z,100701.47
2023-07-25T01:42:54.184Z,100701.47
2023-07-25T01:43:25.649Z,100709.66
2023-07-25T01:43:58.362Z,100708.88
2023-07-25T01:44:29.906Z,100705.75
2023-07-25T01:45:01.287Z,100706.53
2023-07-25T01:45:32.863Z,100704.16
2023-07-25T01:46:04.418Z,100708.84
2023-07-25T01:46:36.074Z,100700.66
2023-07-25T01:47:07.553Z,100706.13
2023-07-25T01:47:39.061Z,100697.16
2023-07-25T01:48:10.557Z,100700.66
2023-07-25T01:48:41.966Z,100704.56
2023-07-25T01:49:13.929Z,100703.78
2023-07-25T01:49:45.360Z,100703.00
2023-07-25T01:50:17.884Z,100703.41
2023-07-25T01:50:49.368Z,100699.50
2023-07-25T01:51:20.884Z,100697.16
2023-07-25T01:51:52.466Z,100700.25
2023-07-25T01:52:24.072Z,100702.22
2023-07-25T01:52:55.764Z,100699.88
2023-07-25T01:53:27.209Z,100700.25
2023-07-25T01:54:00.014Z,100698.69
2023-07-25T01:54:31.470Z,100699.47
2023-07-25T01:55:03.515Z,100701.81
2023-07-25T01:55:37.602Z,100699.47
2023-07-25T01:56:09.040Z,100696.75
2023-07-25T01:56:40.525Z,100692.44
2023-07-25T01:57:12.045Z,100698.69
2023-07-25T01:57:43.549Z,100691.66
2023-07-25T01:58:14.980Z,100694.00
2023-07-25T01:58:46.498Z,100690.47
2023-07-25T01:59:18.586Z,100687.75
2023-07-25T01:59:50.803Z,100691.66
2023-07-25T02:00:22.376Z,100696.31
2023-07-25T02:01:00.576Z,100695.94
2023-07-25T02:01:32.296Z,100693.59
2023-07-25T02:02:04.129Z,100696.72
2023-07-25T02:02:35.680Z,100695.56
2023-07-25T02:03:07.266Z,100694.38
2023-07-25T02:03:38.711Z,100696.31
2023-07-25T02:04:10.142Z,100693.59
2023-07-25T02:04:41.593Z,100695.53
2023-07-25T02:05:13.026Z,100693.19
2023-07-25T02:05:44.576Z,100690.84
2023-07-25T02:06:16.097Z,100690.06
2023-07-25T02:06:47.558Z,100690.06
2023-07-25T02:07:19.016Z,100692.00
2023-07-25T02:07:50.459Z,100688.50
2023-07-25T02:08:21.897Z,100688.50
2023-07-25T02:08:53.313Z,100683.03
2023-07-25T02:09:24.805Z,100686.94
2023-07-25T02:09:56.267Z,100683.03
2023-07-25T02:10:28.722Z,100686.91
2023-07-25T02:11:00.324Z,100686.13
2023-07-25T02:11:31.841Z,100690.81
2023-07-25T02:12:03.816Z,100683.00
2023-07-25T02:12:35.256Z,100680.66
2023-07-25T02:13:06.725Z,100690.00
2023-07-25T02:13:38.271Z,100683.00
2023-07-25T02:14:09.680Z,100695.09
2023-07-25T02:14:41.143Z,100691.59
2023-07-25T02:15:12.648Z,100690.81
2023-07-25T02:15:44.198Z,100697.03
2023-07-25T02:16:15.855Z,100691.59
2023-07-25T02:16:47.396Z,100693.16
2023-07-25T02:17:20.659Z,100694.72
2023-07-25T02:17:52.969Z,100694.72
2023-07-25T02:18:24.546Z,100689.25
2023-07-25T02:18:56.068Z,100692.75
2023-07-25T02:19:27.591Z,100694.31
2023-07-25T02:19:59.070Z,100694.31
2023-07-25T02:20:33.673Z,100692.34
2023-07-25T02:21:05.176Z,100690.41
2023-07-25T02:21:36.593Z,100690.41
2023-07-25T02:22:08.452Z,100684.94
2023-07-25T02:22:39.930Z,100682.22
2023-07-25T02:23:11.450Z,100682.63
2023-07-25T02:23:43.000Z,100680.66
2023-07-25T02:24:14.535Z,100684.19
2023-07-25T02:24:46.045Z,100682.25
2023-07-25T02:25:17.765Z,100678.72
2023-07-25T02:25:49.215Z,100678.72
2023-07-25T02:26:20.852Z,100677.94
2023-07-25T02:26:52.255Z,100680.66
2023-07-25T02:27:23.736Z,100676.78
2023-07-25T02:27:55.433Z,100676.00
2023-07-25T02:28:26.977Z,100680.28
2023-07-25T02:29:00.811Z,100682.25
2023-07-25T02:29:32.282Z,100675.22
2023-07-25T02:30:04.007Z,100669.75
2023-07-25T02:30:35.567Z,100675.59
2023-07-25T02:31:07.154Z,100675.22
2023-07-25T02:31:38.782Z,100676.75
2023-07-25T02:32:10.233Z,100677.16
2023-07-25T02:32:41.742Z,100670.16
2023-07-25T02:33:13.903Z,100672.47
2023-07-25T02:33:45.354Z,100666.25
2023-07-25T02:34:17.287Z,100682.63
2023-07-25T02:34:48.809Z,100672.47
2023-07-25T02:35:20.476Z,100673.66
2023-07-25T02:35:51.885Z,100668.19
2023-07-25T02:36:23.329Z,100668.19
2023-07-25T02:36:54.760Z,100663.91
2023-07-25T02:37:26.211Z,100663.91
2023-07-25T02:38:46.785Z,100659.22
2023-07-25T02:39:18.202Z,100661.53
2023-07-25T02:39:49.596Z,100664.28
2023-07-25T02:40:21.109Z,100663.50
2023-07-25T02:40:52.589Z,100661.53
2023-07-25T02:41:24.027Z,100658.03
2023-07-25T02:41:55.442Z,100661.53
2023-07-25T02:42:26.852Z,100659.19
2023-07-25T02:42:58.504Z,100663.50
2023-07-25T02:43:30.165Z,100666.22
2023-07-25T02:44:01.933Z,100665.44
2023-07-25T02:44:33.329Z,100668.16
2023-07-25T02:45:05.168Z,100660.38
2023-07-25T02:45:36.712Z,100660.38
2023-07-25T02:46:08.172Z,100662.69
2023-07-25T02:46:39.597Z,100671.25
2023-07-25T02:47:11.107Z,100673.22
2023-07-25T02:47:42.808Z,100672.44
2023-07-25T02:48:14.315Z,100670.84
2023-07-25T02:48:45.764Z,100668.50
2023-07-25T02:49:17.402Z,100664.22
2023-07-25T02:49:48.828Z,100670.47
2023-07-25T02:50:20.285Z,100677.88
2023-07-25T02:50:51.772Z,100669.69
2023-07-25T02:51:23.286Z,100673.19
2023-07-25T02:51:54.748Z,100675.13
2023-07-25T02:52:26.246Z,100673.56
2023-07-25T02:52:57.691Z,100668.09
2023-07-25T02:53:29.244Z,100673.56
2023-07-25T02:54:00.698Z,100670.47
2023-07-25T02:54:32.148Z,100675.13
2023-07-25T02:55:04.576Z,100680.97
2023-07-25T02:55:37.872Z,100675.91
2023-07-25T02:56:09.262Z,100676.28
2023-07-25T02:56:40.682Z,100673.16
2023-07-25T02:57:12.370Z,100677.03
2023-07-25T02:57:43.783Z,100673.53
2023-07-25T02:58:15.230Z,100671.97
2023-07-25T02:58:46.699Z,100666.91
2023-07-25T02:59:20.241Z,100677.81
2023-07-25T02:59:51.928Z,100673.09
2023-07-25T03:00:23.764Z,100673.50
2023-07-25T03:00:55.341Z,100671.13
2023-07-25T03:01:26.920Z,100675.03
2023-07-25T03:01:58.665Z,100680.13
2023-07-25T03:02:30.179Z,100673.47
2023-07-25T03:03:01.822Z,100667.22
2023-07-25T03:03:33.302Z,100669.56
2023-07-25T03:04:04.934Z,100676.19
2023-07-25T03:04:36.431Z,100667.97
2023-07-25T03:05:09.292Z,100671.84
2023-07-25T03:05:40.813Z,100672.63
2023-07-25T03:06:12.482Z,100668.34
2023-07-25T03:06:43.937Z,100673.03
2023-07-25T03:07:15.371Z,100672.63
2023-07-25T03:07:46.867Z,100671.84
2023-07-25T03:08:18.454Z,100678.09
2023-07-25T03:08:49.947Z,100674.22
2023-07-25T03:09:21.345Z,100676.94
2023-07-25T03:09:52.712Z,100676.56
2023-07-25T03:10:24.329Z,100671.88
2023-07-25T03:10:55.759Z,100680.84
2023-07-25T03:11:27.203Z,100679.31
2023-07-25T03:12:01.654Z,100679.31
2023-07-25T03:12:33.145Z,100677.38
2023-07-25T03:13:04.701Z,100681.66
2023-07-25T03:13:36.165Z,100684.38
2023-07-25T03:14:07.630Z,100674.25
2023-07-25T03:14:39.024Z,100675.81
2023-07-25T03:15:10.730Z,100675.81
2023-07-25T03:15:42.424Z,100678.53
2023-07-25T03:16:13.980Z,100677.75
2023-07-25T03:16:45.526Z,100678.53
2023-07-25T03:17:16.984Z,100686.72
2023-07-25T03:17:48.954Z,100681.28
2023-07-25T03:18:20.538Z,100682.06
2023-07-25T03:18:52.084Z,100686.72
2023-07-25T03:19:23.671Z,100685.56
2023-07-25T03:19:55.378Z,100690.25
2023-07-25T03:20:26.906Z,100693.75
2023-07-25T03:21:01.306Z,100686.72
2023-07-25T03:21:33.257Z,100688.28
2023-07-25T03:22:05.181Z,100688.28
2023-07-25T03:22:36.628Z,100691.03
2023-07-25T03:23:08.120Z,100692.97
2023-07-25T03:23:39.918Z,100686.34
2023-07-25T03:24:11.361Z,100687.13
2023-07-25T03:24:42.926Z,100688.28
2023-07-25T03:25:14.330Z,100691.81
2023-07-25T03:25:45.738Z,100689.84
2023-07-25T03:26:17.716Z,100689.06
2023-07-25T03:26:49.365Z,100689.84
2023-07-25T03:27:20.966Z,100688.66
2023-07-25T03:27:52.831Z,100700.38
2023-07-25T03:28:24.391Z,100685.94
2023-07-25T03:28:55.837Z,100688.28
2023-07-25T03:29:27.402Z,100689.84
2023-07-25T03:29:58.891Z,100693.38
2023-07-25T03:30:30.448Z,100686.75
2023-07-25T03:31:02.082Z,100694.56
2023-07-25T03:31:33.780Z,100691.03
2023-07-25T03:32:05.783Z,100685.59
2023-07-25T03:32:37.323Z,100691.44
2023-07-25T03:33:09.028Z,100688.72
2023-07-25T03:33:40.541Z,100686.00
2023-07-25T03:34:12.055Z,100682.88
2023-07-25T03:34:43.865Z,100686.41
2023-07-25T03:35:15.294Z,100692.63
2023-07-25T03:35:46.869Z,100689.91
2023-07-25T03:36:18.379Z,100689.13
2023-07-25T03:36:49.843Z,100683.66
2023-07-25T03:37:21.350Z,100690.28
2023-07-25T03:37:52.778Z,100687.56
2023-07-25T03:38:24.252Z,100679.38
2023-07-25T03:38:55.679Z,100682.09
2023-07-25T03:39:27.232Z,100676.25
2023-07-25T03:40:01.604Z,100684.06
2023-07-25T03:40:33.005Z,100681.34
2023-07-25T03:41:04.716Z,100679.41
2023-07-25T03:41:36.372Z,100681.34
2023-07-25T03:42:07.805Z,100682.13
2023-07-25T03:42:39.286Z,100684.84
2023-07-25T03:43:10.727Z,100682.50
2023-07-25T03:43:42.209Z,100680.56
2023-07-25T03:44:18.761Z,100679.41
2023-07-25T03:44:52.309Z,100681.34
2023-07-25T03:45:23.970Z,100687.56
2023-07-25T03:45:55.512Z,100685.22
2023-07-25T03:46:27.049Z,100684.06
2023-07-25T03:46:58.827Z,100682.50
2023-07-25T03:47:30.340Z,100685.59
2023-07-25T03:48:01.847Z,100677.44
2023-07-25T03:48:33.412Z,100684.03
2023-07-25T03:49:04.804Z,100678.19
2023-07-25T03:49:36.225Z,100673.50
2023-07-25T03:50:08.106Z,100678.19
2023-07-25T03:50:39.556Z,100674.69
2023-07-25T03:51:14.903Z,100680.13
2023-07-25T03:51:46.402Z,100680.13
2023-07-25T03:52:17.869Z,100683.63
2023-07-25T03:52:49.543Z,100675.47
2023-07-25T03:53:21.018Z,100678.19
2023-07-25T03:53:52.541Z,100680.53
2023-07-25T03:54:25.144Z,100682.09
2023-07-25T03:54:56.631Z,100679.38
2023-07-25T03:55:28.462Z,100682.09
2023-07-25T03:56:00.089Z,100678.59
2023-07-25T03:56:31.626Z,100676.25
2023-07-25T03:57:03.359Z,100681.31
2023-07-25T03:57:34.799Z,100676.25
2023-07-25T03:58:06.509Z,100671.94
2023-07-25T03:58:38.025Z,100675.06
2023-07-25T03:59:09.613Z,100672.31
2023-07-25T03:59:41.026Z,100678.56
2023-07-25T04:00:13.318Z,100677.00
2023-07-25T04:00:44.972Z,100678.16
2023-07-25T04:01:16.509Z,100673.88
2023-07-25T04:01:48.151Z,100673.88
2023-07-25T04:02:20.695Z,100682.06
2023-07-25T04:03:04.986Z,100676.97
2023-07-25T04:03:41.246Z,100685.16
2023-07-25T04:04:13.043Z,100678.94
2023-07-25T04:04:44.562Z,100677.38
2023-07-25T04:05:16.405Z,100684.41
2023-07-25T04:05:47.843Z,100681.69
2023-07-25T04:06:19.920Z,100681.28
2023-07-25T04:06:51.440Z,100684.00
2023-07-25T04:07:22.895Z,100679.31
2023-07-25T04:07:54.321Z,100682.06
2023-07-25T04:08:25.840Z,100690.22
2023-07-25T04:08:58.541Z,100686.34
2023-07-25T04:09:29.993Z,100681.66
2023-07-25T04:10:01.878Z,100685.19
2023-07-25T04:10:33.345Z,100685.97
2023-07-25T04:11:05.051Z,100681.28
2023-07-25T04:11:36.533Z,100675.84
2023-07-25T04:12:08.395Z,100677.41
2023-07-25T04:12:39.849Z,100676.25
2023-07-25T04:13:11.354Z,100678.19
2023-07-25T04:13:42.798Z,100676.66
2023-07-25T04:14:14.274Z,100672.75
2023-07-25T04:14:45.698Z,100679.78
2023-07-25T04:15:17.223Z,100678.22
2023-07-25T04:15:48.754Z,100683.31
2023-07-25T04:16:20.224Z,100675.91
2023-07-25T04:16:51.894Z,100673.56
2023-07-25T04:17:23.402Z,100682.13
2023-07-25T04:17:54.950Z,100680.97
2023-07-25T04:18:26.457Z,100685.66
2023-07-25T04:18:57.970Z,100679.03
2023-07-25T04:19:29.405Z,100683.31
2023-07-25T04:20:00.901Z,100677.47
2023-07-25T04:20:32.447Z,100682.16
2023-07-25T04:21:04.028Z,100682.56
2023-07-25T04:21:35.489Z,100680.63
2023-07-25T04:22:06.959Z,100682.19
2023-07-25T04:22:39.260Z,100689.19
2023-07-25T04:23:11.395Z,100682.97
2023-07-25T04:23:43.879Z,100684.53
2023-07-25T04:24:15.423Z,100689.59
2023-07-25T04:24:46.892Z,100682.19
2023-07-25T04:25:18.321Z,100689.22
2023-07-25T04:25:50.735Z,100685.31
2023-07-25T04:26:22.146Z,100683.38
2023-07-25T04:26:53.638Z,100683.00
2023-07-25T04:27:25.156Z,100683.78
2023-07-25T04:27:56.673Z,100687.69
2023-07-25T04:28:29.893Z,100685.75
2023-07-25T04:29:03.776Z,100694.31
2023-07-25T04:29:35.187Z,100678.72
2023-07-25T04:30:07.213Z,100682.22
2023-07-25T04:30:38.750Z,100685.34
2023-07-25T04:31:10.322Z,100677.56
2023-07-25T04:31:41.792Z,100681.06
2023-07-25T04:32:13.327Z,100676.41
2023-07-25T04:32:44.769Z,100681.47
2023-07-25T04:33:16.254Z,100689.66
2023-07-25T04:33:47.799Z,100680.69
2023-07-25T04:34:19.363Z,100685.78
2023-07-25T04:34:51.086Z,100681.88
2023-07-25T04:35:22.606Z,100684.22
2023-07-25T04:35:54.117Z,100683.84
2023-07-25T04:36:29.883Z,100688.13
2023-07-25T04:37:01.608Z,100686.97
2023-07-25T04:37:33.083Z,100684.25
2023-07-25T04:38:04.551Z,100687.75
2023-07-25T04:38:36.014Z,100687.38
2023-07-25T04:39:07.549Z,100688.16
2023-07-25T04:39:39.029Z,100688.94
2023-07-25T04:40:11.068Z,100690.47
2023-07-25T04:40:45.531Z,100690.09
2023-07-25T04:41:17.044Z,100680.72
2023-07-25T04:41:48.446Z,100694.00
2023-07-25T04:42:19.861Z,100685.41
2023-07-25T04:42:51.469Z,100686.97
2023-07-25T04:43:22.914Z,100683.88
2023-07-25T04:43:54.381Z,100688.16
2023-07-25T04:44:25.878Z,100689.72
2023-07-25T04:44:59.886Z,100683.88
2023-07-25T04:45:31.321Z,100681.94
2023-07-25T04:46:02.789Z,100687.78
2023-07-25T04:46:34.264Z,100683.91
2023-07-25T04:47:05.777Z,100683.50
2023-07-25T04:47:37.342Z,100685.84
2023-07-25T04:48:08.911Z,100683.13
2023-07-25T04:48:40.437Z,100687.41
2023-07-25T04:49:14.785Z,100679.97
2023-07-25T04:49:46.251Z,100685.06
2023-07-25T04:50:17.792Z,100689.34
2023-07-25T04:50:49.238Z,100688.19
2023-07-25T04:51:20.764Z,100688.19
2023-07-25T04:51:52.272Z,100688.59
2023-07-25T04:52:23.790Z,100686.63
2023-07-25T04:52:55.316Z,100691.72
2023-07-25T04:53:26.987Z,100693.66
2023-07-25T04:53:58.596Z,100695.22
2023-07-25T04:54:30.092Z,100687.03
2023-07-25T04:55:01.496Z,100693.28
2023-07-25T04:55:32.913Z,100691.31
2023-07-25T04:56:04.521Z,100692.09
2023-07-25T04:56:36.223Z,100691.31
2023-07-25T04:57:07.714Z,100687.44
2023-07-25T04:57:39.292Z,100689.38
2023-07-25T04:58:11.034Z,100690.53
2023-07-25T04:58:42.537Z,100694.84
2023-07-25T04:59:13.994Z,100689.38
2023-07-25T04:59:45.417Z,100691.72
2023-07-25T05:00:17.207Z,100690.94
2023-07-25T05:00:48.727Z,100688.22
2023-07-25T05:01:20.233Z,100692.13
2023-07-25T05:01:51.793Z,100690.16
2023-07-25T05:02:23.645Z,100690.16
2023-07-25T05:02:55.145Z,100689.78
2023-07-25T05:03:27.312Z,100686.28
2023-07-25T05:03:58.952Z,100696.03
2023-07-25T05:04:30.397Z,100701.09
2023-07-25T05:05:01.958Z,100703.41
2023-07-25T05:05:33.421Z,100697.97
2023-07-25T05:06:05.014Z,100701.13
2023-07-25T05:06:36.477Z,100702.25
2023-07-25T05:07:08.676Z,100707.72
2023-07-25T05:07:40.042Z,100709.31
2023-07-25T05:08:11.494Z,100709.72
2023-07-25T05:08:42.864Z,100712.84
2023-07-25T05:09:14.307Z,100710.09
2023-07-25T05:09:45.971Z,100708.16
2023-07-25T05:10:17.470Z,100711.66
2023-07-25T05:10:51.503Z,100714.03
2023-07-25T05:11:22.915Z,100712.06
2023-07-25T05:11:54.454Z,100715.59
2023-07-25T05:12:25.944Z,100709.72
2023-07-25T05:12:57.709Z,100706.63
2023-07-25T05:13:29.247Z,100714.41
2023-07-25T05:14:01.218Z,100704.66
2023-07-25T05:14:32.673Z,100708.97
2023-07-25T05:15:05.125Z,100705.84
2023-07-25T05:15:38.516Z,100708.56
2023-07-25T05:16:10.030Z,100715.19
2023-07-25T05:16:41.476Z,100718.72
2023-07-25T05:17:12.934Z,100711.31
2023-07-25T05:17:44.661Z,100711.31
2023-07-25T05:18:16.111Z,100713.66
2023-07-25T05:18:47.610Z,100720.69
2023-07-25T05:19:19.047Z,100714.78
2023-07-25T05:19:51.057Z,100713.63
2023-07-25T05:20:22.589Z,100712.47
2023-07-25T05:20:54.074Z,100716.75
2023-07-25T05:21:25.526Z,100715.59
2023-07-25T05:21:59.299Z,100719.09
2023-07-25T05:22:30.742Z,100723.00
2023-07-25T05:23:02.503Z,100721.06
2023-07-25T05:23:33.996Z,100729.66
2023-07-25T05:24:05.722Z,100720.69
2023-07-25T05:24:37.377Z,100723.03
2023-07-25T05:25:09.387Z,100723.81
2023-07-25T05:25:40.960Z,100725.38
2023-07-25T05:26:12.343Z,100719.91
2023-07-25T05:26:43.765Z,100723.03
2023-07-25T05:27:16.302Z,100720.69
2023-07-25T05:27:47.799Z,100721.06
2023-07-25T05:28:20.024Z,100727.31
2023-07-25T05:28:51.512Z,100721.84
2023-07-25T05:29:22.953Z,100723.41
2023-07-25T05:29:54.474Z,100720.66
2023-07-25T05:30:26.007Z,100722.22
2023-07-25T05:30:57.729Z,100728.09
2023-07-25T05:31:29.476Z,100719.88
2023-07-25T05:32:01.262Z,100721.44
2023-07-25T05:32:34.217Z,100731.22
2023-07-25T05:33:08.066Z,100721.84
2023-07-25T05:33:39.470Z,100723.41
2023-07-25T05:34:11.159Z,100728.50
2023-07-25T05:34:42.641Z,100726.53
2023-07-25T05:35:14.121Z,100728.88
2023-07-25T05:35:45.511Z,100728.50
2023-07-25T05:36:16.923Z,100721.06
2023-07-25T05:36:48.413Z,100724.97
2023-07-25T05:37:20.102Z,100723.03
2023-07-25T05:37:51.597Z,100723.81
2023-07-25T05:38:23.161Z,100725.38
2023-07-25T05:38:54.571Z,100728.47
2023-07-25T05:39:25.961Z,100724.56
2023-07-25T05:39:59.817Z,100721.44
2023-07-25T05:40:31.229Z,100729.25
2023-07-25T05:41:03.587Z,100728.09
2023-07-25T05:41:35.058Z,100721.44
2023-07-25T05:42:06.897Z,100728.47
2023-07-25T05:42:38.306Z,100724.56
2023-07-25T05:43:12.030Z,100726.13
2023-07-25T05:43:43.501Z,100723.41
2023-07-25T05:44:14.981Z,100725.75
2023-07-25T05:44:46.580Z,100726.91
2023-07-25T05:45:18.044Z,100726.91
2023-07-25T05:45:49.557Z,100727.31
2023-07-25T05:46:21.023Z,100726.91
2023-07-25T05:46:52.510Z,100726.50
2023-07-25T05:47:23.997Z,100728.06
2023-07-25T05:47:55.516Z,100732.38
2023-07-25T05:48:27.202Z,100732.75
2023-07-25T05:48:58.706Z,100728.06
2023-07-25T05:49:30.225Z,100727.69
2023-07-25T05:50:02.017Z,100736.66
2023-07-25T05:50:33.479Z,100725.34
2023-07-25T05:51:05.012Z,100729.63
2023-07-25T05:51:36.390Z,100734.72
2023-07-25T05:52:08.103Z,100729.25
2023-07-25T05:52:39.564Z,100730.81
2023-07-25T05:53:11.051Z,100730.41
2023-07-25T05:53:42.583Z,100733.16
2023-07-25T05:54:16.647Z,100732.38
2023-07-25T05:54:50.055Z,100728.47
2023-07-25T05:55:21.523Z,100733.53
2023-07-25T05:55:52.994Z,100726.13
2023-07-25T05:56:24.440Z,100735.09
2023-07-25T05:56:56.050Z,100731.19
2023-07-25T05:57:27.537Z,100730.78
2023-07-25T05:57:58.977Z,100733.13
2023-07-25T05:58:30.897Z,100730.00
2023-07-25T05:59:02.374Z,100730.38
2023-07-25T05:59:33.806Z,100731.94
2023-07-25T06:00:08.233Z,100730.78
2023-07-25T06:00:39.932Z,100741.72
2023-07-25T06:01:11.433Z,100733.09
2023-07-25T06:01:42.994Z,100737.78
2023-07-25T06:02:14.546Z,100736.22
2023-07-25T06:02:46.126Z,100738.53
2023-07-25T06:03:18.171Z,100730.72
2023-07-25T06:03:49.941Z,100735.41
2023-07-25T06:04:21.394Z,100736.59
2023-07-25T06:04:52.801Z,100728.75